Time;durP1;ratioP1;P1;durP2;ratioP2;P2;SDS_P1;SDS_P2;PMS_P1;PMS_P2;Temp;Humidity;BMP_temperature;BMP_pressure;BME280_temperature;BME280_humidity;BME280_pressure;Samples;Min_cycle;Max_cycle;Signal;HPM_P1;HPM_P2
2023/04/13 00:00:20;;;;;;;;;;;8.00;99.90;;;;;;2102456;28;19911;-72
2023/04/13 00:01:22;;;;;;;;;;;8.00;99.90;;;;;;2104502;28;19965;-72
2023/04/13 00:02:22;;;;;;;;;;;8.00;99.90;;;;;;2103798;28;19915;-72
2023/04/13 00:03:23;;;;;;;;;;;8.00;99.90;;;;;;2103731;28;19961;-72
2023/04/13 00:04:23;;;;;;;;;;;8.00;99.90;;;;;;2102554;28;19912;-72
2023/04/13 00:05:24;;;;;;;;;;;8.00;99.90;;;;;;2104032;28;20360;-72
2023/04/13 00:06:24;;;;;;;;;;;8.00;99.90;;;;;;2103170;28;19999;-72
2023/04/13 00:07:26;;;;;;;;;;;8.00;99.90;;;;;;2103424;28;20425;-72
2023/04/13 00:08:29;;;;;;;;;;;8.10;99.90;;;;;;2103721;28;20003;-72
2023/04/13 00:09:30;;;;;;;;;;;8.10;99.90;;;;;;2103520;28;20011;-72
2023/04/13 00:10:34;;;;;;;;;;;8.10;99.90;;;;;;2102806;28;20352;-72
2023/04/13 00:11:37;;;;;;;;;;;8.10;99.90;;;;;;2102792;28;19919;-72
2023/04/13 00:12:57;;;;;;;;;;;8.10;99.90;;;;;;2102036;28;20363;-72
2023/04/13 00:13:57;;;;;;;;;;;8.10;99.90;;;;;;2099970;28;19912;-72
2023/04/13 00:14:58;;;;;;;;;;;8.20;99.90;;;;;;2103256;28;19951;-72
2023/04/13 00:16:00;;;;;;;;;;;8.20;99.90;;;;;;2103125;28;19918;-72
2023/04/13 00:17:01;;;;;;;;;;;8.20;99.90;;;;;;2100982;28;19966;-72
2023/04/13 00:18:02;;;;;;;;;;;8.20;99.90;;;;;;2104099;28;19912;-72
2023/04/13 00:19:03;;;;;;;;;;;8.20;99.90;;;;;;2102673;28;19922;-72
2023/04/13 00:20:10;;;;;;;;;;;8.20;99.90;;;;;;2103147;28;20558;-72
2023/04/13 00:21:11;;;;;;;;;;;8.20;99.90;;;;;;2101536;28;19965;-72
2023/04/13 00:22:11;;;;;;;;;;;8.20;99.90;;;;;;2101820;28;20006;-73
2023/04/13 00:23:12;;;;;;;;;;;8.20;99.90;;;;;;2104198;28;19920;-72
2023/04/13 00:24:12;;;;;;;;;;;8.20;99.90;;;;;;2102182;28;20383;-72
2023/04/13 00:25:13;;;;;;;;;;;8.20;99.90;;;;;;2101702;28;19916;-72
2023/04/13 00:26:14;;;;;;;;;;;8.20;99.90;;;;;;2103049;28;19961;-72
2023/04/13 00:27:14;;;;;;;;;;;8.20;99.90;;;;;;2104043;28;20016;-72
2023/04/13 00:28:15;;;;;;;;;;;8.30;99.90;;;;;;2101527;28;19958;-72
2023/04/13 00:29:15;;;;;;;;;;;8.30;99.90;;;;;;2102261;28;19915;-72
2023/04/13 00:30:16;;;;;;;;;;;8.30;99.90;;;;;;2102043;28;19912;-72
2023/04/13 00:31:16;;;;;;;;;;;8.30;99.90;;;;;;2102833;28;19938;-72
2023/04/13 00:32:17;;;;;;;;;;;8.30;99.90;;;;;;2103517;28;19955;-72
2023/04/13 00:33:17;;;;;;;;;;;8.30;99.90;;;;;;2103283;28;19912;-72
2023/04/13 00:34:18;;;;;;;;;;;8.30;99.90;;;;;;2104399;28;19908;-72
2023/04/13 00:35:23;;;;;;;;;;;8.40;99.90;;;;;;2103825;28;19912;-72
2023/04/13 00:36:24;;;;;;;;;;;8.40;99.90;;;;;;2104011;28;19920;-72
2023/04/13 00:37:24;;;;;;;;;;;8.40;99.90;;;;;;2104119;28;19912;-72
2023/04/13 00:38:26;;;;;;;;;;;8.40;99.90;;;;;;2102202;28;20330;-72
2023/04/13 00:39:29;;;;;;;;;;;8.40;99.90;;;;;;2102501;28;19916;-72
2023/04/13 00:40:30;;;;;;;;;;;8.40;99.90;;;;;;2101823;28;19920;-72
2023/04/13 00:41:31;;;;;;;;;;;8.40;99.90;;;;;;2101228;28;19916;-72
2023/04/13 00:42:31;;;;;;;;;;;8.40;99.90;;;;;;2102566;28;19958;-72
2023/04/13 00:43:31;;;;;;;;;;;8.40;99.90;;;;;;2105554;28;19969;-72
2023/04/13 00:44:32;;;;;;;;;;;8.40;99.90;;;;;;2104504;28;20302;-72
2023/04/13 00:45:37;;;;;;;;;;;8.50;99.90;;;;;;2105604;28;19922;-72
2023/04/13 00:46:41;;;;;;;;;;;8.50;99.90;;;;;;2104071;28;19939;-72
2023/04/13 00:47:45;;;;;;;;;;;8.50;99.90;;;;;;2095867;28;19912;-72
2023/04/13 00:48:47;;;;;;;;;;;8.50;99.90;;;;;;2101709;28;19912;-72
2023/04/13 00:49:48;;;;;;;;;;;8.50;99.90;;;;;;2104115;28;19951;-72
2023/04/13 00:50:48;;;;;;;;;;;8.50;99.90;;;;;;2103499;28;19916;-72
2023/04/13 00:51:49;;;;;;;;;;;8.50;99.90;;;;;;2105315;28;20042;-72
2023/04/13 00:52:50;;;;;;;;;;;8.50;99.90;;;;;;2103054;28;19917;-72
2023/04/13 00:53:51;;;;;;;;;;;8.60;99.90;;;;;;2104105;28;19928;-72
2023/04/13 00:54:55;;;;;;;;;;;8.50;99.90;;;;;;2104693;28;19958;-72
2023/04/13 00:55:56;;;;;;;;;;;8.60;99.90;;;;;;2104830;28;20345;-72
2023/04/13 00:56:57;;;;;;;;;;;8.60;99.90;;;;;;2104088;28;20287;-72
2023/04/13 00:57:58;;;;;;;;;;;8.60;99.90;;;;;;2104568;28;19915;-72
2023/04/13 00:58:58;;;;;;;;;;;8.60;99.90;;;;;;2101772;28;19920;-72
2023/04/13 01:00:00;;;;;;;;;;;8.60;99.90;;;;;;2103857;28;19912;-72
2023/04/13 01:01:01;;;;;;;;;;;8.60;99.90;;;;;;2101790;28;19920;-72
2023/04/13 01:02:04;;;;;;;;;;;8.60;99.90;;;;;;2104920;28;19954;-72
2023/04/13 01:03:04;;;;;;;;;;;8.60;99.90;;;;;;2104082;28;20317;-72
2023/04/13 01:04:05;;;;;;;;;;;8.60;99.90;;;;;;2105898;28;19935;-72
2023/04/13 01:05:06;;;;;;;;;;;8.60;99.90;;;;;;2105027;28;19972;-72
2023/04/13 01:06:12;;;;;;;;;;;8.60;99.90;;;;;;2105460;28;19961;-72
2023/04/13 01:07:18;;;;;;;;;;;8.60;99.90;;;;;;2105396;28;19975;-72
2023/04/13 01:08:26;;;;;;;;;;;8.60;99.90;;;;;;2102431;28;19969;-72
2023/04/13 01:09:29;;;;;;;;;;;8.50;99.90;;;;;;2103839;28;20017;-72
2023/04/13 01:10:35;;;;;;;;;;;8.50;99.90;;;;;;2102309;28;19963;-72
2023/04/13 01:11:38;;;;;;;;;;;8.60;99.90;;;;;;2105011;28;20294;-72
2023/04/13 01:12:38;;;;;;;;;;;8.50;99.90;;;;;;2105055;28;20042;-72
2023/04/13 01:13:45;;;;;;;;;;;8.50;99.90;;;;;;2102677;28;19912;-72
2023/04/13 01:14:56;;;;;;;;;;;8.50;99.90;;;;;;2105123;28;20012;-72
2023/04/13 01:16:11;;;;;;;;;;;8.50;99.90;;;;;;2105353;28;19916;-72
2023/04/13 01:17:15;;;;;;;;;;;8.50;99.90;;;;;;2102458;28;19916;-72
2023/04/13 01:18:16;;;;;;;;;;;8.40;99.90;;;;;;2105154;28;19915;-72
2023/04/13 01:19:21;;;;;;;;;;;8.40;99.90;;;;;;2105237;28;19912;-72
2023/04/13 01:20:23;;;;;;;;;;;8.40;99.90;;;;;;2101404;28;19951;-72
2023/04/13 01:21:24;;;;;;;;;;;8.40;99.90;;;;;;2104695;28;19943;-72
2023/04/13 01:22:27;;;;;;;;;;;8.40;99.90;;;;;;2101523;28;20015;-72
2023/04/13 01:23:47;;;;;;;;;;;8.40;99.90;;;;;;2103058;28;19925;-72
2023/04/13 01:24:58;;;;;;;;;;;8.40;99.90;;;;;;2104781;28;19951;-71
2023/04/13 01:26:00;;;;;;;;;;;8.50;99.90;;;;;;2103545;28;19912;-71
2023/04/13 01:27:15;;;;;;;;;;;8.40;99.90;;;;;;2104708;28;19908;-71
2023/04/13 01:28:16;;;;;;;;;;;8.40;99.90;;;;;;2103278;28;20378;-72
2023/04/13 01:29:17;;;;;;;;;;;8.40;99.90;;;;;;2103603;28;19912;-72
2023/04/13 01:30:21;;;;;;;;;;;8.40;99.90;;;;;;2102619;28;19912;-72
2023/04/13 01:31:21;;;;;;;;;;;8.40;99.90;;;;;;2105114;28;20733;-71
2023/04/13 01:32:22;;;;;;;;;;;8.40;99.90;;;;;;2101661;28;19993;-72
2023/04/13 01:33:24;;;;;;;;;;;8.40;99.90;;;;;;2103629;28;19917;-72
2023/04/13 01:34:25;;;;;;;;;;;8.30;99.90;;;;;;2102640;28;19916;-72
2023/04/13 01:35:25;;;;;;;;;;;8.30;99.90;;;;;;2103920;28;19963;-72
2023/04/13 01:36:26;;;;;;;;;;;8.30;99.90;;;;;;2103454;28;19913;-72
2023/04/13 01:37:26;;;;;;;;;;;8.30;99.90;;;;;;2102256;28;19916;-72
2023/04/13 01:38:26;;;;;;;;;;;8.30;99.90;;;;;;2105536;28;19912;-74
2023/04/13 01:39:30;;;;;;;;;;;8.30;99.90;;;;;;2103269;28;19969;-72
2023/04/13 01:40:33;;;;;;;;;;;8.30;99.90;;;;;;2103709;28;19912;-72
2023/04/13 01:41:33;;;;;;;;;;;8.30;99.90;;;;;;2104483;28;20334;-72
2023/04/13 01:42:35;;;;;;;;;;;8.30;99.90;;;;;;2102731;28;19912;-72
2023/04/13 01:43:36;;;;;;;;;;;8.30;99.90;;;;;;2103885;28;19920;-72
2023/04/13 01:44:37;;;;;;;;;;;8.30;99.90;;;;;;2104267;28;19912;-72
2023/04/13 01:45:46;;;;;;;;;;;8.40;99.90;;;;;;2101135;28;19997;-72
2023/04/13 01:46:48;;;;;;;;;;;8.40;99.90;;;;;;2103711;28;19912;-72
2023/04/13 01:47:50;;;;;;;;;;;8.30;99.90;;;;;;2104121;28;19913;-72
2023/04/13 01:48:52;;;;;;;;;;;8.30;99.90;;;;;;2104017;28;19977;-72
2023/04/13 01:50:07;;;;;;;;;;;8.30;99.90;;;;;;2102384;28;19923;-72
2023/04/13 01:51:30;;;;;;;;;;;8.30;99.90;;;;;;2101937;28;20013;-72
2023/04/13 01:52:32;;;;;;;;;;;8.30;99.90;;;;;;2103179;28;20028;-72
2023/04/13 01:53:35;;;;;;;;;;;8.30;99.90;;;;;;2100340;28;20437;-72
2023/04/13 01:54:38;;;;;;;;;;;8.30;99.90;;;;;;2103076;28;19920;-72
2023/04/13 01:55:40;;;;;;;;;;;8.40;99.90;;;;;;2104151;28;20360;-72
2023/04/13 01:56:41;;;;;;;;;;;8.40;99.90;;;;;;2103886;28;19966;-72
2023/04/13 01:57:46;;;;;;;;;;;8.30;99.90;;;;;;2104167;28;20380;-72
2023/04/13 01:58:48;;;;;;;;;;;8.30;99.90;;;;;;2102968;28;20439;-72
2023/04/13 01:59:49;;;;;;;;;;;8.30;99.90;;;;;;2103330;28;19913;-72
2023/04/13 02:00:49;;;;;;;;;;;8.30;99.90;;;;;;2102179;28;19916;-72
2023/04/13 02:01:49;;;;;;;;;;;8.30;99.90;;;;;;2104935;28;19919;-70
2023/04/13 02:02:53;;;;;;;;;;;8.30;99.90;;;;;;2105757;28;20439;-71
2023/04/13 02:03:53;;;;;;;;;;;8.30;99.90;;;;;;2101902;28;19951;-71
2023/04/13 02:04:58;;;;;;;;;;;8.30;99.90;;;;;;2103649;28;19978;-71
2023/04/13 02:06:00;;;;;;;;;;;8.30;99.90;;;;;;2103179;28;19961;-70
2023/04/13 02:07:01;;;;;;;;;;;8.30;99.90;;;;;;2101965;28;19958;-70
2023/04/13 02:08:05;;;;;;;;;;;8.30;99.90;;;;;;2104468;28;19908;-71
2023/04/13 02:09:05;;;;;;;;;;;8.30;99.90;;;;;;2102411;28;19923;-71
2023/04/13 02:10:06;;;;;;;;;;;8.30;99.90;;;;;;2101564;28;20014;-71
2023/04/13 02:11:07;;;;;;;;;;;8.30;99.90;;;;;;2104862;28;19954;-71
2023/04/13 02:12:07;;;;;;;;;;;8.30;99.90;;;;;;2104646;28;19972;-71
2023/04/13 02:13:08;;;;;;;;;;;8.30;99.90;;;;;;2103507;28;19924;-71
2023/04/13 02:14:09;;;;;;;;;;;8.40;99.90;;;;;;2104223;28;19916;-70
2023/04/13 02:15:09;;;;;;;;;;;8.30;99.90;;;;;;2104062;28;19918;-71
2023/04/13 02:16:10;;;;;;;;;;;8.30;99.90;;;;;;2103661;28;20263;-71
2023/04/13 02:17:10;;;;;;;;;;;8.40;99.90;;;;;;2103061;28;19920;-71
2023/04/13 02:18:12;;;;;;;;;;;8.30;99.90;;;;;;2103772;28;19912;-71
2023/04/13 02:19:13;;;;;;;;;;;8.30;99.90;;;;;;2102958;28;19912;-71
2023/04/13 02:20:14;;;;;;;;;;;8.30;99.90;;;;;;2102432;28;19912;-71
2023/04/13 02:21:15;;;;;;;;;;;8.30;99.90;;;;;;2101872;28;19916;-71
2023/04/13 02:22:15;;;;;;;;;;;8.30;99.90;;;;;;2103599;28;19912;-70
2023/04/13 02:23:16;;;;;;;;;;;8.30;99.90;;;;;;2102726;28;19912;-71
2023/04/13 02:24:17;;;;;;;;;;;8.30;99.90;;;;;;2104294;28;20241;-70
2023/04/13 02:25:17;;;;;;;;;;;8.30;99.90;;;;;;2102964;28;19916;-71
2023/04/13 02:26:18;;;;;;;;;;;8.30;99.90;;;;;;2103815;28;20331;-71
2023/04/13 02:27:19;;;;;;;;;;;8.30;99.90;;;;;;2103324;28;19955;-71
2023/04/13 02:28:20;;;;;;;;;;;8.30;99.90;;;;;;2102180;28;19958;-70
2023/04/13 02:29:21;;;;;;;;;;;8.30;99.90;;;;;;2102524;28;19963;-71
2023/04/13 02:30:21;;;;;;;;;;;8.20;99.90;;;;;;2094533;28;19946;-70
2023/04/13 02:31:22;;;;;;;;;;;8.30;99.90;;;;;;2104164;28;19977;-71
2023/04/13 02:32:23;;;;;;;;;;;8.30;99.90;;;;;;2103965;28;20272;-71
2023/04/13 02:33:23;;;;;;;;;;;8.30;99.90;;;;;;2105585;28;19923;-71
2023/04/13 02:34:24;;;;;;;;;;;8.30;99.90;;;;;;2105046;28;19917;-71
2023/04/13 02:35:26;;;;;;;;;;;8.30;99.90;;;;;;2103088;28;20333;-71
2023/04/13 02:36:26;;;;;;;;;;;8.30;99.90;;;;;;2103967;28;19919;-71
2023/04/13 02:37:30;;;;;;;;;;;8.30;99.90;;;;;;2103575;28;19916;-71
2023/04/13 02:38:30;;;;;;;;;;;8.30;99.90;;;;;;2103325;28;19919;-71
2023/04/13 02:39:31;;;;;;;;;;;8.30;99.90;;;;;;2094009;28;19913;-70
2023/04/13 02:40:32;;;;;;;;;;;8.30;99.90;;;;;;2103433;28;19959;-71
2023/04/13 02:41:33;;;;;;;;;;;8.30;99.90;;;;;;2103119;28;19925;-71
2023/04/13 02:42:33;;;;;;;;;;;8.30;99.90;;;;;;2104339;28;20654;-71
2023/04/13 02:43:34;;;;;;;;;;;8.30;99.90;;;;;;2103781;28;19912;-71
2023/04/13 02:44:35;;;;;;;;;;;8.30;99.90;;;;;;2104091;28;19912;-71
2023/04/13 02:45:36;;;;;;;;;;;8.30;99.90;;;;;;2102082;28;19959;-71
2023/04/13 02:46:36;;;;;;;;;;;8.30;99.90;;;;;;2103138;28;19920;-71
2023/04/13 02:47:37;;;;;;;;;;;8.30;99.90;;;;;;2103838;28;19908;-71
2023/04/13 02:48:38;;;;;;;;;;;8.30;99.90;;;;;;2101820;28;20368;-70
2023/04/13 02:49:38;;;;;;;;;;;8.30;99.90;;;;;;2102703;28;20293;-71
2023/04/13 02:50:39;;;;;;;;;;;8.30;99.90;;;;;;2102117;28;19908;-71
2023/04/13 02:51:40;;;;;;;;;;;8.30;99.90;;;;;;2102263;28;20380;-71
2023/04/13 02:52:42;;;;;;;;;;;8.30;99.90;;;;;;2103562;28;19951;-71
2023/04/13 02:53:43;;;;;;;;;;;8.30;99.90;;;;;;2101293;28;19972;-71
2023/04/13 02:54:43;;;;;;;;;;;8.40;99.90;;;;;;2105395;28;19916;-70
2023/04/13 02:55:44;;;;;;;;;;;8.30;99.90;;;;;;2103546;28;19908;-70
2023/04/13 02:56:44;;;;;;;;;;;8.30;99.90;;;;;;2102030;28;19920;-70
2023/04/13 02:57:44;;;;;;;;;;;8.30;99.90;;;;;;2103397;28;20470;-70
2023/04/13 02:58:45;;;;;;;;;;;8.40;99.90;;;;;;2103063;28;19920;-70
2023/04/13 02:59:46;;;;;;;;;;;8.30;99.90;;;;;;2103009;28;19947;-71
2023/04/13 03:00:47;;;;;;;;;;;8.30;99.90;;;;;;2102982;28;19977;-70
2023/04/13 03:01:48;;;;;;;;;;;8.40;99.90;;;;;;2102084;28;19918;-71
2023/04/13 03:02:48;;;;;;;;;;;8.30;99.90;;;;;;2106906;28;19908;-70
2023/04/13 03:03:48;;;;;;;;;;;8.40;99.90;;;;;;2104243;28;19939;-71
2023/04/13 03:04:49;;;;;;;;;;;8.40;99.90;;;;;;2102963;28;20090;-70
2023/04/13 03:05:50;;;;;;;;;;;8.40;99.90;;;;;;2102645;28;19948;-71
2023/04/13 03:06:53;;;;;;;;;;;8.40;99.90;;;;;;2103127;28;19919;-70
2023/04/13 03:07:54;;;;;;;;;;;8.30;99.90;;;;;;2102487;28;19989;-71
2023/04/13 03:08:54;;;;;;;;;;;8.40;99.90;;;;;;2102042;28;19912;-71
2023/04/13 03:09:54;;;;;;;;;;;8.40;99.90;;;;;;2102607;28;20436;-71
2023/04/13 03:10:55;;;;;;;;;;;8.40;99.90;;;;;;2103918;28;19972;-71
2023/04/13 03:11:55;;;;;;;;;;;8.40;99.90;;;;;;2101198;28;19983;-71
2023/04/13 03:12:56;;;;;;;;;;;8.40;99.90;;;;;;2104548;28;19970;-71
2023/04/13 03:13:59;;;;;;;;;;;8.40;99.90;;;;;;2103343;28;20351;-71
2023/04/13 03:15:01;;;;;;;;;;;8.40;99.90;;;;;;2103862;28;19912;-71
2023/04/13 03:16:03;;;;;;;;;;;8.40;99.90;;;;;;2104180;28;19911;-71
2023/04/13 03:17:04;;;;;;;;;;;8.40;99.90;;;;;;2103645;28;19912;-71
2023/04/13 03:18:05;;;;;;;;;;;8.40;99.90;;;;;;2100975;28;19917;-71
2023/04/13 03:19:05;;;;;;;;;;;8.40;99.90;;;;;;2104321;28;20097;-71
2023/04/13 03:20:11;;;;;;;;;;;8.40;99.90;;;;;;2101906;28;19924;-70
2023/04/13 03:21:12;;;;;;;;;;;8.40;99.90;;;;;;2103633;28;19920;-71
2023/04/13 03:22:13;;;;;;;;;;;8.40;99.90;;;;;;2103049;28;19920;-71
2023/04/13 03:23:13;;;;;;;;;;;8.40;99.90;;;;;;2101680;28;19908;-71
2023/04/13 03:24:14;;;;;;;;;;;8.40;99.90;;;;;;2093381;28;19909;-70
2023/04/13 03:25:15;;;;;;;;;;;8.40;99.90;;;;;;2098703;28;20299;-71
2023/04/13 03:26:15;;;;;;;;;;;8.40;99.90;;;;;;2100229;28;20034;-71
2023/04/13 03:27:16;;;;;;;;;;;8.40;99.90;;;;;;2101983;28;19916;-71
2023/04/13 03:28:18;;;;;;;;;;;8.40;99.90;;;;;;2103830;28;19922;-71
2023/04/13 03:29:18;;;;;;;;;;;8.40;99.90;;;;;;2102721;28;19912;-71
2023/04/13 03:30:19;;;;;;;;;;;8.40;99.90;;;;;;2102588;28;19944;-71
2023/04/13 03:31:21;;;;;;;;;;;8.40;99.90;;;;;;2102553;28;20367;-70
2023/04/13 03:32:21;;;;;;;;;;;8.40;99.90;;;;;;2102215;28;19951;-70
2023/04/13 03:33:21;;;;;;;;;;;8.40;99.90;;;;;;2103795;28;20084;-71
2023/04/13 03:34:22;;;;;;;;;;;8.40;99.90;;;;;;2102985;28;19913;-70
2023/04/13 03:35:22;;;;;;;;;;;8.40;99.90;;;;;;2104090;28;19912;-71
2023/04/13 03:36:26;;;;;;;;;;;8.30;99.90;;;;;;2103172;28;19914;-71
2023/04/13 03:37:31;;;;;;;;;;;8.30;99.90;;;;;;2103659;28;19971;-70
2023/04/13 03:38:31;;;;;;;;;;;8.40;99.90;;;;;;2104434;28;20074;-71
2023/04/13 03:39:32;;;;;;;;;;;8.30;99.90;;;;;;2102878;28;19966;-71
2023/04/13 03:40:32;;;;;;;;;;;8.30;99.90;;;;;;2103044;28;19919;-71
2023/04/13 03:41:33;;;;;;;;;;;8.30;99.90;;;;;;2101893;28;19958;-71
2023/04/13 03:42:33;;;;;;;;;;;8.40;99.90;;;;;;2102352;28;19938;-71
2023/04/13 03:43:34;;;;;;;;;;;8.30;99.90;;;;;;2102957;28;19952;-71
2023/04/13 03:44:34;;;;;;;;;;;8.30;99.90;;;;;;2101948;28;20466;-71
2023/04/13 03:45:34;;;;;;;;;;;8.40;99.90;;;;;;2103044;28;20077;-71
2023/04/13 03:46:36;;;;;;;;;;;8.40;99.90;;;;;;2103498;28;19919;-71
2023/04/13 03:47:37;;;;;;;;;;;8.30;99.90;;;;;;2100698;28;20114;-71
2023/04/13 03:48:41;;;;;;;;;;;8.30;99.90;;;;;;2102930;28;20339;-71
2023/04/13 03:49:41;;;;;;;;;;;8.30;99.90;;;;;;2103415;28;19942;-70
2023/04/13 03:50:41;;;;;;;;;;;8.30;99.90;;;;;;2102336;28;19908;-70
2023/04/13 03:51:42;;;;;;;;;;;8.40;99.90;;;;;;2104491;28;20051;-71
2023/04/13 03:52:42;;;;;;;;;;;8.30;99.90;;;;;;2103113;28;19920;-70
2023/04/13 03:53:44;;;;;;;;;;;8.30;99.90;;;;;;2103868;28;19916;-71
2023/04/13 03:54:45;;;;;;;;;;;8.40;99.90;;;;;;2103575;28;19927;-71
2023/04/13 03:55:45;;;;;;;;;;;8.40;99.90;;;;;;2102379;28;19970;-70
2023/04/13 03:56:46;;;;;;;;;;;8.40;99.90;;;;;;2102603;28;19920;-71
2023/04/13 03:57:47;;;;;;;;;;;8.40;99.90;;;;;;2103356;28;20002;-71
2023/04/13 03:58:47;;;;;;;;;;;8.40;99.90;;;;;;2102533;28;20053;-71
2023/04/13 03:59:48;;;;;;;;;;;8.40;99.90;;;;;;2102991;28;19962;-71
2023/04/13 04:00:48;;;;;;;;;;;8.40;99.90;;;;;;2102741;28;20261;-70
2023/04/13 04:01:49;;;;;;;;;;;8.40;99.90;;;;;;2101699;28;19955;-71
2023/04/13 04:02:50;;;;;;;;;;;8.40;99.90;;;;;;2102522;28;19908;-70
2023/04/13 04:03:54;;;;;;;;;;;8.40;99.90;;;;;;2110855;28;19951;-71
2023/04/13 04:04:55;;;;;;;;;;;8.40;99.90;;;;;;2110067;28;19977;-71
2023/04/13 04:05:55;;;;;;;;;;;8.40;99.90;;;;;;2101983;28;19916;-70
2023/04/13 04:06:56;;;;;;;;;;;8.40;99.90;;;;;;2103891;28;20548;-71
2023/04/13 04:07:57;;;;;;;;;;;8.40;99.90;;;;;;2102432;28;20391;-71
2023/04/13 04:08:57;;;;;;;;;;;8.40;99.90;;;;;;2103870;28;20280;-71
2023/04/13 04:09:57;;;;;;;;;;;8.40;99.90;;;;;;2100828;28;19912;-71
2023/04/13 04:10:58;;;;;;;;;;;8.40;99.90;;;;;;2102903;28;19947;-71
2023/04/13 04:11:59;;;;;;;;;;;8.40;99.90;;;;;;2102530;28;19916;-71
2023/04/13 04:12:59;;;;;;;;;;;8.40;99.90;;;;;;2103951;28;19909;-71
2023/04/13 04:14:00;;;;;;;;;;;8.40;99.90;;;;;;2102813;28;19953;-71
2023/04/13 04:15:00;;;;;;;;;;;8.40;99.90;;;;;;2101616;28;19916;-70
2023/04/13 04:16:02;;;;;;;;;;;8.50;99.90;;;;;;2102010;28;20406;-71
2023/04/13 04:17:02;;;;;;;;;;;8.40;99.90;;;;;;2101705;28;19920;-70
2023/04/13 04:18:03;;;;;;;;;;;8.40;99.90;;;;;;2102695;28;19998;-70
2023/04/13 04:19:04;;;;;;;;;;;8.40;99.90;;;;;;2104044;28;19959;-71
2023/04/13 04:20:05;;;;;;;;;;;8.50;99.90;;;;;;2102008;28;20367;-71
2023/04/13 04:21:06;;;;;;;;;;;8.40;99.90;;;;;;2103559;28;19912;-70
2023/04/13 04:22:07;;;;;;;;;;;8.40;99.90;;;;;;2104048;28;20019;-71
2023/04/13 04:23:08;;;;;;;;;;;8.40;99.90;;;;;;2098716;28;20434;-71
2023/04/13 04:24:19;;;;;;;;;;;8.50;99.90;;;;;;2099733;28;20363;-71
2023/04/13 04:25:22;;;;;;;;;;;8.50;99.90;;;;;;2104241;28;20338;-72
2023/04/13 04:26:24;;;;;;;;;;;8.50;99.90;;;;;;2101658;28;20002;-71
2023/04/13 04:27:25;;;;;;;;;;;8.50;99.90;;;;;;2103161;28;19916;-72
2023/04/13 04:28:29;;;;;;;;;;;8.50;99.90;;;;;;2098524;28;19955;-71
2023/04/13 04:29:35;;;;;;;;;;;8.50;99.90;;;;;;2099070;28;19927;-71
2023/04/13 04:30:36;;;;;;;;;;;8.50;99.90;;;;;;2101669;28;19920;-71
2023/04/13 04:31:42;;;;;;;;;;;8.50;99.90;;;;;;2104505;28;20261;-71
2023/04/13 04:32:42;;;;;;;;;;;8.50;99.90;;;;;;2103502;28;19916;-71
2023/04/13 04:33:43;;;;;;;;;;;8.50;99.90;;;;;;2102173;28;19920;-71
2023/04/13 04:34:43;;;;;;;;;;;8.50;99.90;;;;;;2104207;28;19912;-71
2023/04/13 04:35:49;;;;;;;;;;;8.50;99.90;;;;;;2103504;28;19912;-71
2023/04/13 04:36:50;;;;;;;;;;;8.50;99.90;;;;;;2102882;28;20383;-71
2023/04/13 04:37:51;;;;;;;;;;;8.50;99.90;;;;;;2102964;28;19912;-71
2023/04/13 04:38:56;;;;;;;;;;;8.50;99.90;;;;;;2103130;28;20299;-72
2023/04/13 04:39:58;;;;;;;;;;;8.50;99.90;;;;;;2101713;28;19944;-72
2023/04/13 04:41:01;;;;;;;;;;;8.50;99.90;;;;;;2103137;28;20433;-71
2023/04/13 04:42:04;;;;;;;;;;;8.50;99.90;;;;;;2103690;28;19909;-71
2023/04/13 04:43:04;;;;;;;;;;;8.60;99.90;;;;;;2102625;28;19912;-71
2023/04/13 04:44:07;;;;;;;;;;;8.50;99.90;;;;;;2102638;28;19928;-71
2023/04/13 04:45:08;;;;;;;;;;;8.50;99.90;;;;;;2100828;28;19916;-71
2023/04/13 04:46:08;;;;;;;;;;;8.50;99.90;;;;;;2101041;28;19972;-71
2023/04/13 04:47:12;;;;;;;;;;;8.50;99.90;;;;;;2103469;28;19934;-71
2023/04/13 04:48:13;;;;;;;;;;;8.50;99.90;;;;;;2100170;28;19916;-71
2023/04/13 04:49:14;;;;;;;;;;;8.50;99.90;;;;;;2101863;28;20969;-71
2023/04/13 04:50:16;;;;;;;;;;;8.50;99.90;;;;;;2103278;28;20536;-71
2023/04/13 04:51:17;;;;;;;;;;;8.50;99.90;;;;;;2102443;28;20007;-71
2023/04/13 04:52:17;;;;;;;;;;;8.50;99.90;;;;;;2102314;28;20489;-71
2023/04/13 04:53:18;;;;;;;;;;;8.50;99.90;;;;;;2102129;28;20385;-71
2023/04/13 04:54:19;;;;;;;;;;;8.50;99.90;;;;;;2102043;28;19920;-71
2023/04/13 04:55:19;;;;;;;;;;;8.50;99.90;;;;;;2102484;28;19965;-71
2023/04/13 04:56:20;;;;;;;;;;;8.50;99.90;;;;;;2102478;28;19912;-71
2023/04/13 04:57:20;;;;;;;;;;;8.50;99.90;;;;;;2103695;28;19918;-71
2023/04/13 04:58:21;;;;;;;;;;;8.50;99.90;;;;;;2103140;28;20751;-71
2023/04/13 04:59:22;;;;;;;;;;;8.50;99.90;;;;;;2101292;28;19919;-71
2023/04/13 05:00:25;;;;;;;;;;;8.50;99.90;;;;;;2102687;28;19948;-71
2023/04/13 05:01:25;;;;;;;;;;;8.50;99.90;;;;;;2103143;28;19919;-71
2023/04/13 05:02:26;;;;;;;;;;;8.50;99.90;;;;;;2103656;28;19908;-72
2023/04/13 05:03:27;;;;;;;;;;;8.50;99.90;;;;;;2099172;28;19924;-72
2023/04/13 05:04:27;;;;;;;;;;;8.50;99.90;;;;;;2103846;28;19915;-73
2023/04/13 05:05:30;;;;;;;;;;;8.50;99.90;;;;;;2103496;28;20004;-72
2023/04/13 05:06:32;;;;;;;;;;;8.50;99.90;;;;;;2100699;28;20594;-71
2023/04/13 05:07:32;;;;;;;;;;;8.50;99.90;;;;;;2102443;28;19916;-72
2023/04/13 05:08:33;;;;;;;;;;;8.50;99.90;;;;;;2101992;28;20411;-72
2023/04/13 05:09:33;;;;;;;;;;;8.50;99.90;;;;;;2103390;28;19912;-72
2023/04/13 05:10:34;;;;;;;;;;;8.50;99.90;;;;;;2101660;28;19916;-71
2023/04/13 05:11:35;;;;;;;;;;;8.50;99.90;;;;;;2102041;28;20032;-71
2023/04/13 05:12:35;;;;;;;;;;;8.50;99.90;;;;;;2102894;28;20469;-72
2023/04/13 05:13:36;;;;;;;;;;;8.60;99.90;;;;;;2100655;28;19913;-71
2023/04/13 05:14:37;;;;;;;;;;;8.50;99.90;;;;;;2103000;28;20020;-71
2023/04/13 05:15:37;;;;;;;;;;;8.50;99.90;;;;;;2102160;28;19962;-72
2023/04/13 05:16:38;;;;;;;;;;;8.60;99.90;;;;;;2102237;28;19952;-71
2023/04/13 05:17:40;;;;;;;;;;;8.60;99.90;;;;;;2103151;28;19908;-71
2023/04/13 05:18:44;;;;;;;;;;;8.50;99.90;;;;;;2103099;28;20397;-71
2023/04/13 05:19:45;;;;;;;;;;;8.50;99.90;;;;;;2101693;28;20378;-71
2023/04/13 05:20:46;;;;;;;;;;;8.60;99.90;;;;;;2103331;28;20359;-71
2023/04/13 05:21:46;;;;;;;;;;;8.60;99.90;;;;;;2102480;28;19997;-71
2023/04/13 05:22:47;;;;;;;;;;;8.60;99.90;;;;;;2100787;28;19916;-71
2023/04/13 05:23:47;;;;;;;;;;;8.60;99.90;;;;;;2102663;28;19951;-71
2023/04/13 05:24:48;;;;;;;;;;;8.60;99.90;;;;;;2093836;28;20462;-72
2023/04/13 05:25:48;;;;;;;;;;;8.60;99.90;;;;;;2102992;28;19912;-71
2023/04/13 05:26:48;;;;;;;;;;;8.60;99.90;;;;;;2100394;28;19963;-71
2023/04/13 05:27:49;;;;;;;;;;;8.60;99.90;;;;;;2100418;28;19928;-71
2023/04/13 05:28:50;;;;;;;;;;;8.60;99.90;;;;;;2103140;28;20383;-72
2023/04/13 05:29:51;;;;;;;;;;;8.60;99.90;;;;;;2102949;28;19913;-72
2023/04/13 05:30:51;;;;;;;;;;;8.60;99.90;;;;;;2102724;28;20248;-71
2023/04/13 05:31:52;;;;;;;;;;;8.60;99.90;;;;;;2104244;28;20086;-71
2023/04/13 05:32:52;;;;;;;;;;;8.60;99.90;;;;;;2102997;28;19965;-72
2023/04/13 05:33:53;;;;;;;;;;;8.60;99.90;;;;;;2105146;28;19971;-71
2023/04/13 05:34:53;;;;;;;;;;;8.60;99.90;;;;;;2103153;28;20388;-71
2023/04/13 05:35:54;;;;;;;;;;;8.60;99.90;;;;;;2102626;28;19950;-71
2023/04/13 05:36:56;;;;;;;;;;;8.60;99.90;;;;;;2104083;28;19909;-71
2023/04/13 05:37:58;;;;;;;;;;;8.60;99.90;;;;;;2104530;28;20295;-72
2023/04/13 05:39:00;;;;;;;;;;;8.70;99.90;;;;;;2103399;28;20391;-72
2023/04/13 05:40:01;;;;;;;;;;;8.60;99.90;;;;;;2101088;28;19951;-71
2023/04/13 05:41:02;;;;;;;;;;;8.70;99.90;;;;;;2103750;28;19912;-71
2023/04/13 05:42:02;;;;;;;;;;;8.70;99.90;;;;;;2104549;28;19916;-71
2023/04/13 05:43:03;;;;;;;;;;;8.70;99.90;;;;;;2104629;28;21093;-72
2023/04/13 05:44:04;;;;;;;;;;;8.70;99.90;;;;;;2104111;28;19954;-72
2023/04/13 05:45:08;;;;;;;;;;;8.70;99.90;;;;;;2103959;28;19974;-71
2023/04/13 05:46:09;;;;;;;;;;;8.70;99.90;;;;;;2102940;28;19981;-71
2023/04/13 05:47:10;;;;;;;;;;;8.70;99.90;;;;;;2103689;28;20282;-71
2023/04/13 05:48:11;;;;;;;;;;;8.70;99.90;;;;;;2102037;28;19997;-71
2023/04/13 05:49:11;;;;;;;;;;;8.70;99.90;;;;;;2102254;28;19920;-71
2023/04/13 05:50:12;;;;;;;;;;;8.70;99.90;;;;;;2102297;28;20291;-71
2023/04/13 05:51:12;;;;;;;;;;;8.70;99.90;;;;;;2103811;28;19967;-72
2023/04/13 05:52:13;;;;;;;;;;;8.70;99.90;;;;;;2104321;28;19931;-72
2023/04/13 05:53:13;;;;;;;;;;;8.80;99.90;;;;;;2103988;28;20436;-72
2023/04/13 05:54:14;;;;;;;;;;;8.80;99.90;;;;;;2103165;28;19959;-72
2023/04/13 05:55:15;;;;;;;;;;;8.70;99.90;;;;;;2104236;28;20004;-71
2023/04/13 05:56:15;;;;;;;;;;;8.80;99.90;;;;;;2101221;28;19923;-71
2023/04/13 05:57:19;;;;;;;;;;;8.80;99.90;;;;;;2102312;28;19913;-72
2023/04/13 05:58:20;;;;;;;;;;;8.80;99.90;;;;;;2103866;28;19911;-71
2023/04/13 05:59:21;;;;;;;;;;;8.80;99.90;;;;;;2100979;28;19964;-71
2023/04/13 06:00:21;;;;;;;;;;;8.80;99.90;;;;;;2102098;28;19919;-71
2023/04/13 06:01:23;;;;;;;;;;;8.80;99.90;;;;;;2103211;28;19923;-71
2023/04/13 06:02:25;;;;;;;;;;;8.80;99.90;;;;;;2104224;28;19912;-72
2023/04/13 06:03:26;;;;;;;;;;;8.80;99.90;;;;;;2094014;28;19995;-72
2023/04/13 06:04:27;;;;;;;;;;;8.80;99.90;;;;;;2100365;28;19923;-72